createdAt,value
2018-04-13T00:00:25.825Z,13.97
2018-04-13T00:02:53.893Z,8.63
2018-04-13T00:05:22.687Z,12.53
2018-04-13T00:07:50.969Z,9.90
2018-04-13T00:10:19.245Z,6.20
2018-04-13T00:12:47.410Z,10.90
2018-04-13T00:15:16.197Z,9.57
2018-04-13T00:17:44.368Z,8.37
2018-04-13T00:20:12.443Z,6.60
2018-04-13T00:22:40.514Z,6.97
2018-04-13T00:25:08.799Z,7.03
2018-04-13T00:27:36.964Z,7.30
2018-04-13T00:30:05.249Z,8.67
2018-04-13T00:32:33.314Z,5.93
2018-04-13T00:35:01.597Z,6.87
2018-04-13T00:37:29.758Z,7.27
2018-04-13T00:39:57.932Z,10.37
2018-04-13T00:42:26.105Z,8.03
2018-04-13T00:44:54.392Z,8.40
2018-04-13T00:47:22.559Z,10.87
2018-04-13T00:49:50.728Z,9.30
2018-04-13T00:52:19.416Z,14.10
2018-04-13T00:54:48.104Z,8.33
2018-04-13T00:57:16.275Z,14.17
2018-04-13T00:59:44.446Z,13.33
2018-04-13T01:02:13.348Z,12.60
2018-04-13T01:04:41.516Z,11.83
2018-04-13T01:07:11.116Z,9.23
2018-04-13T01:09:39.293Z,12.37
2018-04-13T01:12:07.464Z,7.17
2018-04-13T01:14:35.643Z,8.73
2018-04-13T01:17:03.915Z,8.07
2018-04-13T01:19:32.103Z,8.73
2018-04-13T01:22:00.263Z,14.20
2018-04-13T01:24:29.048Z,9.40
2018-04-13T01:26:57.225Z,8.47
2018-04-13T01:29:26.126Z,7.27
2018-04-13T01:31:54.287Z,9.30
2018-04-13T01:34:22.367Z,10.00
2018-04-13T01:36:50.647Z,11.77
2018-04-13T01:39:18.920Z,9.90
2018-04-13T01:41:47.084Z,9.90
2018-04-13T01:44:15.276Z,9.00
2018-04-13T01:46:44.262Z,15.33
2018-04-13T01:49:12.425Z,10.63
2018-04-13T01:51:40.600Z,7.73
2018-04-13T01:54:08.773Z,11.40
2018-04-13T01:56:36.960Z,10.60
2018-04-13T01:59:05.743Z,10.43
2018-04-13T02:01:34.020Z,17.97
2018-04-13T02:04:02.184Z,13.10
2018-04-13T02:06:30.356Z,11.20
2018-04-13T02:08:58.645Z,12.40
2018-04-13T02:11:26.808Z,12.63
2018-04-13T02:13:54.978Z,18.93
2018-04-13T02:16:23.158Z,10.03
2018-04-13T02:18:51.338Z,7.47
2018-04-13T02:21:19.613Z,9.57
2018-04-13T02:23:47.778Z,10.90
2018-04-13T02:26:15.850Z,10.70
2018-04-13T02:28:44.133Z,11.47
2018-04-13T02:31:12.923Z,9.43
2018-04-13T02:33:41.801Z,11.13
2018-04-13T02:36:10.656Z,11.00
2018-04-13T02:38:38.768Z,15.20
2018-04-13T02:41:06.839Z,9.80
2018-04-13T02:43:35.429Z,11.50
2018-04-13T02:46:03.591Z,15.73
2018-04-13T02:48:32.492Z,13.00
2018-04-13T02:51:00.560Z,17.20
2018-04-13T02:53:28.839Z,11.03
2018-04-13T02:55:57.004Z,11.67
2018-04-13T02:58:25.287Z,10.97
2018-04-13T03:00:53.448Z,7.60
2018-04-13T03:03:28.145Z,9.23
2018-04-13T03:05:56.144Z,7.47
2018-04-13T03:08:24.217Z,9.20
2018-04-13T03:10:52.504Z,5.20
2018-04-13T03:13:20.566Z,5.60
2018-04-13T03:15:48.852Z,8.23
2018-04-13T03:18:17.014Z,5.63
2018-04-13T03:20:45.049Z,6.10
2018-04-13T03:23:13.160Z,4.77
2018-04-13T03:25:41.329Z,7.33
2018-04-13T03:28:09.502Z,8.23
2018-04-13T03:30:37.678Z,6.93
2018-04-13T03:33:05.963Z,5.30
2018-04-13T03:35:34.030Z,10.03
2018-04-13T03:38:02.208Z,6.60
2018-04-13T03:40:32.902Z,9.20
2018-04-13T03:43:01.004Z,7.20
2018-04-13T03:45:29.175Z,4.27
2018-04-13T03:47:57.362Z,6.97
2018-04-13T03:50:25.739Z,6.10
2018-04-13T03:52:54.015Z,6.30
2018-04-13T03:55:22.179Z,6.27
2018-04-13T03:57:50.468Z,5.97
2018-04-13T04:00:18.631Z,4.93
2018-04-13T04:02:46.914Z,6.70
2018-04-13T04:05:15.794Z,11.77
2018-04-13T04:07:43.975Z,9.73
2018-04-13T04:10:12.861Z,8.40
2018-04-13T04:12:41.245Z,7.97
2018-04-13T04:15:10.019Z,9.30
2018-04-13T04:17:38.816Z,8.53
2018-04-13T04:20:18.875Z,8.73
2018-04-13T04:22:59.835Z,7.20
2018-04-13T04:25:53.403Z,6.83
2018-04-13T04:28:21.590Z,9.57
2018-04-13T04:30:50.470Z,10.80
2018-04-13T04:33:18.644Z,14.20
2018-04-13T04:35:46.818Z,9.52
2018-04-13T04:38:14.992Z,7.50
2018-04-13T04:40:43.891Z,9.93
2018-04-13T04:43:12.053Z,11.90
2018-04-13T04:45:40.228Z,18.90
2018-04-13T04:48:08.407Z,21.92
2018-04-13T04:50:36.577Z,14.05
2018-04-13T04:53:04.863Z,18.00
2018-04-13T04:55:33.745Z,12.05
2018-04-13T04:58:02.016Z,18.42
2018-04-13T05:00:30.091Z,13.50
2018-04-13T05:02:58.262Z,13.57
2018-04-13T05:05:26.334Z,17.27
2018-04-13T05:07:54.513Z,14.07
2018-04-13T05:10:22.680Z,20.10
2018-04-13T05:12:50.968Z,17.10
2018-04-13T05:15:19.751Z,11.75
2018-04-13T05:17:47.930Z,17.27
2018-04-13T05:20:16.710Z,19.30
2018-04-13T05:22:44.894Z,15.43
2018-04-13T05:25:13.060Z,17.00
2018-04-13T05:27:41.851Z,21.57
2018-04-13T05:30:10.642Z,13.90
2018-04-13T05:32:38.707Z,19.57
2018-04-13T05:35:07.018Z,17.27
2018-04-13T05:37:35.162Z,18.97
2018-04-13T05:40:03.439Z,16.63
2018-04-13T05:42:31.713Z,10.03
2018-04-13T05:44:59.990Z,7.43
2018-04-13T05:47:28.158Z,15.90
2018-04-13T05:49:59.103Z,13.43
2018-04-13T05:52:27.383Z,5.70
2018-04-13T05:54:55.547Z,10.63
2018-04-13T05:57:23.714Z,5.70
2018-04-13T05:59:51.893Z,5.60
2018-04-13T06:02:20.175Z,3.70
2018-04-13T06:04:48.342Z,9.87
2018-04-13T06:07:16.515Z,2.37
2018-04-13T06:09:44.798Z,2.60
2018-04-13T06:12:12.959Z,3.97
2018-04-13T06:14:41.220Z,3.90
2018-04-13T06:17:09.310Z,3.53
2018-04-13T06:19:37.478Z,3.63
2018-04-13T06:22:05.655Z,2.53
2018-04-13T06:24:33.828Z,3.73
2018-04-13T06:27:02.516Z,4.60
2018-04-13T06:29:30.743Z,3.80
2018-04-13T06:31:59.580Z,9.50
2018-04-13T06:34:28.367Z,4.23
2018-04-13T06:36:56.543Z,3.60
2018-04-13T06:39:25.332Z,4.33
2018-04-13T06:41:53.514Z,2.20
2018-04-13T06:44:22.495Z,3.50
2018-04-13T06:46:50.564Z,3.10
2018-04-13T06:49:18.739Z,7.50
2018-04-13T06:51:46.913Z,4.83
2018-04-13T06:54:15.088Z,6.10
2018-04-13T06:56:43.400Z,1.50
2018-04-13T06:59:11.540Z,2.27
2018-04-13T07:01:39.822Z,4.43
2018-04-13T07:04:08.813Z,5.07
2018-04-13T07:06:37.911Z,3.93
2018-04-13T07:09:06.896Z,12.40
2018-04-13T07:11:35.068Z,3.53
2018-04-13T07:14:03.135Z,6.67
2018-04-13T07:16:31.322Z,4.30
2018-04-13T07:18:59.485Z,3.10
2018-04-13T07:21:28.386Z,3.40
2018-04-13T07:23:58.096Z,10.00
2018-04-13T07:26:27.804Z,2.00
2018-04-13T07:28:56.683Z,2.90
2018-04-13T07:31:24.862Z,3.33
2018-04-13T07:33:55.099Z,2.17
2018-04-13T07:36:25.300Z,2.30
2018-04-13T07:38:53.370Z,2.30
2018-04-13T07:41:21.633Z,2.43
2018-04-13T07:43:49.618Z,2.70
2018-04-13T07:46:17.792Z,2.50
2018-04-13T07:48:46.686Z,4.37
2018-04-13T07:51:14.855Z,3.10
2018-04-13T07:53:42.928Z,4.03
2018-04-13T07:56:12.638Z,4.60
2018-04-13T07:58:40.706Z,2.53
2018-04-13T08:01:09.601Z,3.17
2018-04-13T08:03:37.781Z,2.23
2018-04-13T08:06:05.946Z,1.70
2018-04-13T08:08:34.634Z,3.20
2018-04-13T08:11:03.519Z,2.50
2018-04-13T08:13:32.313Z,3.93
2018-04-13T08:16:02.029Z,4.67
2018-04-13T08:18:30.190Z,2.90
2018-04-13T08:20:59.504Z,8.73
2018-04-13T08:23:27.778Z,4.73
2018-04-13T08:25:56.056Z,2.70
2018-04-13T08:28:25.651Z,3.27
2018-04-13T08:30:55.276Z,1.87
2018-04-13T08:33:23.546Z,4.10
2018-04-13T08:35:52.333Z,2.03
2018-04-13T08:38:20.524Z,4.33
2018-04-13T08:40:48.783Z,2.07
2018-04-13T08:43:16.976Z,3.03
2018-04-13T08:45:45.957Z,2.20
2018-04-13T08:48:14.941Z,1.60
2018-04-13T08:50:43.103Z,2.10
2018-04-13T08:53:19.583Z,3.77
2018-04-13T08:55:47.751Z,2.90
2018-04-13T08:58:16.033Z,1.83
2018-04-13T09:00:44.821Z,2.17
2018-04-13T09:03:12.988Z,3.70
2018-04-13T09:05:41.770Z,2.57
2018-04-13T09:08:09.842Z,3.00
2018-04-13T09:10:38.133Z,19.23
2018-04-13T09:13:06.311Z,7.13
2018-04-13T09:15:35.288Z,6.17
2018-04-13T09:18:03.908Z,4.10
2018-04-13T09:20:32.048Z,5.27
2018-04-13T09:23:00.328Z,4.00
2018-04-13T09:25:28.501Z,6.57
2018-04-13T09:27:56.697Z,4.37
2018-04-13T09:30:25.667Z,4.50
2018-04-13T09:32:55.380Z,3.80
2018-04-13T09:35:23.652Z,4.93
2018-04-13T09:37:51.718Z,4.07
2018-04-13T09:40:19.887Z,2.23
2018-04-13T09:42:47.958Z,3.50
2018-04-13T09:45:16.143Z,5.23
2018-04-13T09:47:44.419Z,2.57
2018-04-13T09:50:12.584Z,6.30
2018-04-13T09:52:40.755Z,3.50
2018-04-13T09:55:08.827Z,6.20
2018-04-13T09:57:36.999Z,5.00
2018-04-13T10:00:06.709Z,3.53
2018-04-13T10:02:38.784Z,1.63
2018-04-13T10:05:12.989Z,5.27
2018-04-13T10:07:41.168Z,2.83
2018-04-13T10:10:09.450Z,4.03
2018-04-13T10:12:37.556Z,3.83
2018-04-13T10:15:06.404Z,5.90
2018-04-13T10:17:34.688Z,2.50
2018-04-13T10:20:03.528Z,3.27
2018-04-13T10:22:31.854Z,2.33
2018-04-13T10:24:59.916Z,4.67
2018-04-13T10:27:28.201Z,5.33
2018-04-13T10:29:56.362Z,5.20
2018-04-13T10:32:24.651Z,5.30
2018-04-13T10:34:52.814Z,3.63
2018-04-13T10:37:21.101Z,7.80
2018-04-13T10:39:49.376Z,6.33
2018-04-13T10:42:17.538Z,3.20
2018-04-13T10:44:47.260Z,2.50
2018-04-13T10:47:15.421Z,16.90
2018-04-13T10:49:44.314Z,7.07
2018-04-13T10:52:12.491Z,6.53
2018-04-13T10:54:40.663Z,3.27
2018-04-13T10:57:08.844Z,4.93
2018-04-13T10:59:37.014Z,4.90
2018-04-13T11:02:05.191Z,2.43
2018-04-13T11:04:33.352Z,4.43
2018-04-13T11:07:01.727Z,5.70
2018-04-13T11:09:29.801Z,3.93
2018-04-13T11:11:58.090Z,2.97
2018-04-13T11:14:26.968Z,3.83
2018-04-13T11:16:55.065Z,2.00
2018-04-13T11:19:24.544Z,10.00
2018-04-13T11:21:53.437Z,4.43
2018-04-13T11:24:21.722Z,3.77
2018-04-13T11:26:49.889Z,5.10
2018-04-13T11:29:18.059Z,3.77
2018-04-13T11:31:46.242Z,3.77
2018-04-13T11:34:14.162Z,4.00
2018-04-13T11:36:43.102Z,4.60
2018-04-13T11:39:11.264Z,2.07
2018-04-13T11:41:39.437Z,5.43
2018-04-13T11:44:07.507Z,4.83
2018-04-13T11:46:35.796Z,3.93
2018-04-13T11:49:03.957Z,2.07
2018-04-13T11:51:32.125Z,2.80
2018-04-13T11:54:00.206Z,6.97
2018-04-13T11:56:29.814Z,2.50
2018-04-13T11:58:57.882Z,4.50
2018-04-13T12:01:26.001Z,5.60
2018-04-13T12:03:54.129Z,7.80
2018-04-13T12:06:22.105Z,2.87
2018-04-13T12:08:50.037Z,4.03
2018-04-13T12:11:17.996Z,3.20
2018-04-13T12:13:45.917Z,4.23
2018-04-13T12:16:14.667Z,4.30
2018-04-13T12:18:42.653Z,4.90
2018-04-13T12:21:10.644Z,4.13
2018-04-13T12:23:39.365Z,2.23
2018-04-13T12:26:07.365Z,3.83
2018-04-13T12:28:35.338Z,4.53
2018-04-13T12:31:03.345Z,5.20
2018-04-13T12:33:32.056Z,3.00
2018-04-13T12:36:00.031Z,6.13
2018-04-13T12:38:27.968Z,5.80
2018-04-13T12:40:56.788Z,4.53
2018-04-13T12:43:24.802Z,3.33
2018-04-13T12:45:52.812Z,2.60
2018-04-13T12:48:20.775Z,1.70
2018-04-13T12:50:49.569Z,5.13
2018-04-13T12:53:17.630Z,4.53
2018-04-13T12:55:46.489Z,5.83
2018-04-13T12:58:14.508Z,4.63
2018-04-13T13:00:42.558Z,2.20
2018-04-13T13:03:11.292Z,6.20
2018-04-13T13:05:39.332Z,4.70
2018-04-13T13:08:07.257Z,3.00
2018-04-13T13:10:35.252Z,2.27
2018-04-13T13:13:03.973Z,1.70
2018-04-13T13:15:31.914Z,2.90
2018-04-13T13:18:00.784Z,3.20
2018-04-13T13:20:28.868Z,4.80
2018-04-13T13:22:57.528Z,7.03
2018-04-13T13:25:25.482Z,2.10
2018-04-13T13:27:53.418Z,2.10
2018-04-13T13:30:21.353Z,2.40
2018-04-13T13:32:50.107Z,5.90
2018-04-13T13:35:18.179Z,3.40
2018-04-13T13:37:46.189Z,3.30
2018-04-13T13:40:14.939Z,4.57
2018-04-13T13:42:42.888Z,2.53
2018-04-13T13:45:10.788Z,6.73
2018-04-13T13:47:38.927Z,2.70
2018-04-13T13:50:06.967Z,5.53
2018-04-13T13:52:37.486Z,4.50
2018-04-13T13:55:06.295Z,5.60
2018-04-13T13:57:34.213Z,3.40
2018-04-13T14:00:02.162Z,3.37
2018-04-13T14:02:30.205Z,2.27
2018-04-13T14:04:58.109Z,4.90
2018-04-13T14:07:26.055Z,5.20
2018-04-13T14:09:54.101Z,3.37
2018-04-13T14:12:22.229Z,3.93
2018-04-13T14:14:50.371Z,2.47
2018-04-13T14:17:19.255Z,2.90
2018-04-13T14:19:47.260Z,4.87
2018-04-13T14:22:15.574Z,3.20
2018-04-13T14:24:44.639Z,2.50
2018-04-13T14:27:14.092Z,4.17
2018-04-13T14:29:43.358Z,2.10
2018-04-13T14:32:12.975Z,4.43
2018-04-13T14:34:42.379Z,8.60
2018-04-13T14:37:11.880Z,4.93
2018-04-13T14:39:40.799Z,3.10
2018-04-13T14:42:08.943Z,3.33
2018-04-13T14:44:37.939Z,4.40
2018-04-13T14:47:06.204Z,2.60
2018-04-13T14:49:35.164Z,3.30
2018-04-13T14:52:03.464Z,8.97
2018-04-13T14:54:31.729Z,3.77
2018-04-13T14:56:59.897Z,4.60
2018-04-13T14:59:28.067Z,2.80
2018-04-13T15:01:56.329Z,3.00
2018-04-13T15:04:24.587Z,2.53
2018-04-13T15:06:52.877Z,3.50
2018-04-13T15:09:21.028Z,4.43
2018-04-13T15:11:49.232Z,7.20
2018-04-13T15:14:17.467Z,5.07
2018-04-13T15:16:45.679Z,3.17
2018-04-13T15:19:13.876Z,5.23
2018-04-13T15:21:42.124Z,2.70
2018-04-13T15:24:10.409Z,4.27
2018-04-13T15:26:38.663Z,2.70
2018-04-13T15:29:06.888Z,3.27
2018-04-13T15:31:35.087Z,4.43
2018-04-13T15:34:03.370Z,3.30
2018-04-13T15:36:31.608Z,7.50
2018-04-13T15:38:59.876Z,4.17
2018-04-13T15:41:28.098Z,2.87
2018-04-13T15:43:56.353Z,2.73
2018-04-13T15:46:25.756Z,2.80
2018-04-13T15:48:55.679Z,7.03
2018-04-13T15:51:25.166Z,4.67
2018-04-13T15:53:54.580Z,6.33
2018-04-13T15:56:24.076Z,6.87
2018-04-13T15:58:53.581Z,5.40
2018-04-13T16:01:23.098Z,5.43
2018-04-13T16:03:52.810Z,2.70
2018-04-13T16:06:21.712Z,4.63
2018-04-13T16:08:50.502Z,8.87
2018-04-13T16:11:19.972Z,3.73
2018-04-13T16:13:49.061Z,2.70
2018-04-13T16:16:17.364Z,2.17
2018-04-13T16:18:46.445Z,2.77
2018-04-13T16:21:15.467Z,3.60
2018-04-13T16:23:43.757Z,4.60
2018-04-13T16:26:13.141Z,6.53
2018-04-13T16:28:41.370Z,4.10
2018-04-13T16:31:09.590Z,6.07
2018-04-13T16:33:37.836Z,6.03
2018-04-13T16:36:06.935Z,2.27
2018-04-13T16:38:36.565Z,3.20
2018-04-13T16:41:06.068Z,4.10
2018-04-13T16:43:35.398Z,10.70
2018-04-13T16:46:04.672Z,3.83
2018-04-13T16:48:34.173Z,2.83
2018-04-13T16:51:03.675Z,2.50
2018-04-13T16:53:32.466Z,3.30
2018-04-13T16:56:02.102Z,3.70
2018-04-13T16:58:31.794Z,3.10
2018-04-13T17:01:01.395Z,5.20
2018-04-13T17:03:30.998Z,5.47
2018-04-13T17:05:59.677Z,1.90
2018-04-13T17:08:29.372Z,3.50
2018-04-13T17:10:58.900Z,4.87
2018-04-13T17:13:28.508Z,2.10
2018-04-13T17:15:58.216Z,3.47
2018-04-13T17:18:28.132Z,4.27
2018-04-13T17:20:56.885Z,3.57
2018-04-13T17:23:25.685Z,3.43
2018-04-13T17:25:55.862Z,9.00
2018-04-13T17:28:25.530Z,3.57
2018-04-13T17:30:55.140Z,6.33
2018-04-13T17:33:24.552Z,9.33
2018-04-13T17:35:53.891Z,6.83
2018-04-13T17:38:22.733Z,6.87
2018-04-13T17:40:52.439Z,11.20
2018-04-13T17:43:22.052Z,7.47
2018-04-13T17:45:51.545Z,8.10
2018-04-13T17:48:20.965Z,4.70
2018-04-13T17:50:50.667Z,9.47
2018-04-13T17:53:20.155Z,7.10
2018-04-13T17:55:49.690Z,17.50
2018-04-13T17:58:18.462Z,10.30
2018-04-13T18:00:47.955Z,11.17
2018-04-13T18:03:17.484Z,17.23
2018-04-13T18:05:46.972Z,11.03
2018-04-13T18:08:16.595Z,9.63
2018-04-13T18:10:46.202Z,11.90
2018-04-13T18:13:14.876Z,9.83
2018-04-13T18:15:44.598Z,10.10
2018-04-13T18:18:14.349Z,14.80
2018-04-13T18:20:43.710Z,12.70
2018-04-13T18:23:13.405Z,12.43
2018-04-13T18:25:43.023Z,13.00
2018-04-13T18:28:11.793Z,12.67
2018-04-13T18:30:41.305Z,12.20
2018-04-13T18:33:10.095Z,10.83
2018-04-13T18:35:39.583Z,9.40
2018-04-13T18:38:09.105Z,13.93
2018-04-13T18:40:41.259Z,7.67
2018-04-13T18:43:10.774Z,8.97
2018-04-13T18:45:40.382Z,13.23
2018-04-13T18:48:09.992Z,8.13
2018-04-13T18:50:38.894Z,8.97
2018-04-13T18:53:08.374Z,11.80
2018-04-13T18:55:39.127Z,16.40
2018-04-13T18:58:08.029Z,8.30
2018-04-13T19:00:36.798Z,12.07
2018-04-13T19:03:06.407Z,11.57
2018-04-13T19:05:36.320Z,14.53
2018-04-13T19:08:06.650Z,11.00
2018-04-13T19:10:35.436Z,10.80
2018-04-13T19:13:05.146Z,10.93
2018-04-13T19:15:34.969Z,14.03
2018-04-13T19:18:04.779Z,13.13
2018-04-13T19:20:33.794Z,15.60
2018-04-13T19:23:03.472Z,11.57
2018-04-13T19:25:33.082Z,13.50
2018-04-13T19:28:02.800Z,12.30
2018-04-13T19:30:32.290Z,9.93
2018-04-13T19:33:01.456Z,14.53
2018-04-13T19:35:30.888Z,11.27
2018-04-13T19:38:00.446Z,11.73
2018-04-13T19:40:29.899Z,10.57
2018-04-13T19:42:59.517Z,18.53
2018-04-13T19:45:29.037Z,25.23
2018-04-13T19:47:57.902Z,13.97
2018-04-13T19:50:27.309Z,12.70
2018-04-13T19:52:56.804Z,10.80
2018-04-13T19:55:26.417Z,20.83
2018-04-13T19:57:56.147Z,16.97
2018-04-13T20:00:25.708Z,17.00
2018-04-13T20:02:55.437Z,17.40
2018-04-13T20:05:25.053Z,19.37
2018-04-13T20:07:53.731Z,17.57
2018-04-13T20:10:23.342Z,18.50
2018-04-13T20:12:52.127Z,16.17
2018-04-13T20:15:29.523Z,16.50
2018-04-13T20:17:59.855Z,13.07
2018-04-13T20:20:30.375Z,17.33
2018-04-13T20:22:59.981Z,15.00
2018-04-13T20:25:28.778Z,17.50
2018-04-13T20:27:57.568Z,14.30
2018-04-13T20:30:27.275Z,16.60
2018-04-13T20:32:56.053Z,15.40
2018-04-13T20:35:25.544Z,19.03
2018-04-13T20:37:55.056Z,18.90
2018-04-13T20:40:24.781Z,19.37
2018-04-13T20:42:54.486Z,21.77
2018-04-13T20:45:24.090Z,20.87
2018-04-13T20:47:53.581Z,25.27
2018-04-13T20:50:23.443Z,18.70
2018-04-13T20:52:52.090Z,19.03
2018-04-13T20:55:21.698Z,21.97
2018-04-13T20:57:51.319Z,13.97
2018-04-13T21:00:21.017Z,21.10
2018-04-13T21:02:49.799Z,20.67
2018-04-13T21:05:18.492Z,25.40
2018-04-13T21:07:48.090Z,17.63
2018-04-13T21:10:17.291Z,23.93
2018-04-13T21:12:47.309Z,31.90
2018-04-13T21:15:16.921Z,19.73
2018-04-13T21:17:46.533Z,22.37
2018-04-13T21:20:14.937Z,23.93
2018-04-13T21:22:43.792Z,21.03
2018-04-13T21:25:13.291Z,25.80
2018-04-13T21:27:42.783Z,17.87
2018-04-13T21:30:12.181Z,21.80
2018-04-13T21:32:41.717Z,20.30
2018-04-13T21:35:12.941Z,18.70
2018-04-13T21:37:42.033Z,20.63
2018-04-13T21:40:11.112Z,30.67
2018-04-13T21:42:39.394Z,22.80
2018-04-13T21:45:07.564Z,21.20
2018-04-13T21:47:37.468Z,25.90
2018-04-13T21:50:07.194Z,23.93
2018-04-13T21:52:38.024Z,30.27
2018-04-13T21:55:06.118Z,30.53
2018-04-13T21:57:34.476Z,21.00
2018-04-13T22:00:03.943Z,17.97
2018-04-13T22:02:32.141Z,25.03
2018-04-13T22:05:00.210Z,16.93
2018-04-13T22:07:28.396Z,16.30
2018-04-13T22:09:56.557Z,28.37
2018-04-13T22:12:36.120Z,23.93
2018-04-13T22:15:05.192Z,24.97
2018-04-13T22:17:33.274Z,20.23
2018-04-13T22:20:01.561Z,27.23
2018-04-13T22:22:30.429Z,19.73
2018-04-13T22:24:58.506Z,18.20
2018-04-13T22:27:27.297Z,16.33
2018-04-13T22:29:55.468Z,22.10
2018-04-13T22:32:25.183Z,19.33
2018-04-13T22:34:53.460Z,16.17
2018-04-13T22:37:21.628Z,16.50
2018-04-13T22:39:49.798Z,20.07
2018-04-13T22:42:17.983Z,15.40
2018-04-13T22:44:46.768Z,15.90
2018-04-13T22:47:15.650Z,14.77
2018-04-13T22:49:43.825Z,14.83
2018-04-13T22:52:11.998Z,16.33
2018-04-13T22:54:40.069Z,15.43
2018-04-13T22:57:08.956Z,18.93
2018-04-13T22:59:37.135Z,16.83
2018-04-13T23:02:06.021Z,20.27
2018-04-13T23:04:37.601Z,14.47
2018-04-13T23:07:07.090Z,16.43
2018-04-13T23:09:35.366Z,16.93
2018-04-13T23:12:03.536Z,16.00
2018-04-13T23:14:31.548Z,14.63
2018-04-13T23:16:59.681Z,13.50
2018-04-13T23:19:28.678Z,15.50
2018-04-13T23:21:56.951Z,12.43
2018-04-13T23:24:25.113Z,12.70
2018-04-13T23:26:54.006Z,12.60
2018-04-13T23:29:22.181Z,13.50
2018-04-13T23:31:50.348Z,12.20
2018-04-13T23:34:18.528Z,13.27
2018-04-13T23:36:46.811Z,19.73
2018-04-13T23:39:15.086Z,12.07
2018-04-13T23:41:43.259Z,13.90
2018-04-13T23:44:11.424Z,10.90
2018-04-13T23:46:40.213Z,17.60
2018-04-13T23:49:08.288Z,16.40
2018-04-13T23:51:36.454Z,17.17
2018-04-13T23:54:04.636Z,14.40
2018-04-13T23:56:32.804Z,11.30
2018-04-13T23:59:01.092Z,14.13
